Thursday, April 26, 2018, 4:48 PM EDT
Back to Local

KMRB, Martinsburg Eastern Wv Reg

Location: Martinsburg, WV, United States Lat: 39.4
Local Time: 4:48 PM EDT (20:48 GMT) Lon: -77.983
Time Zone: US/Eastern Elev: 557 ft

Show me the last for .
Show Decoded

2018-04-26 15:53 METAR KMRB 261953Z 26006KT 10SM CLR 20/01 A2982 RMK AO2 SLP097 T02000006 =
2018-04-26 14:53 METAR KMRB 261853Z 30010KT 10SM CLR 19/01 A2984 RMK AO2 SLP103 T01940006 =
2018-04-26 13:53 METAR KMRB 261753Z VRB06G15KT 10SM CLR 18/01 A2986 RMK AO2 SLP110 T01830006
                 10183 20100 58010 =
2018-04-26 12:53 METAR KMRB 261653Z 26011KT 10SM CLR 17/02 A2987 RMK AO2 SLP115 T01670022 =
2018-04-26 11:53 METAR KMRB 261553Z VRB06G17KT 10SM CLR 15/02 A2988 RMK AO2 SLP118 T01500017 =
2018-04-26 10:53 METAR KMRB 261453Z 29013G20KT 10SM CLR 14/02 A2989 RMK AO2 SLP119 T01390017
                 50004 =
2018-04-26 09:53 METAR KMRB 261353Z 31007KT 10SM CLR 12/02 A2989 RMK AO2 SLP121 T01220017 =
2018-04-26 08:53 METAR KMRB 261253Z 32003KT 10SM CLR 11/02 A2988 RMK AO2 SLP119 T01060022 =
2018-04-26 07:53 METAR KMRB 261153Z VRB05KT 10SM CLR 10/02 A2987 RMK AO2 SLP115 70001 T01000022
                 10106 20078 53020 =
2018-04-26 06:53 METAR KMRB 261053Z 00000KT 10SM CLR 08/02 A2984 RMK AO2 SLP105 T00830022 =
2018-04-26 05:53 METAR KMRB 260953Z AUTO VRB03KT 10SM CLR 08/02 A2982 RMK AO2 SLP097 T00830017 =
2018-04-26 04:53 METAR KMRB 260853Z AUTO 29012G19KT 10SM CLR 09/02 A2981 RMK AO2 SLP094 T00940022
                 53003 =
2018-04-26 03:53 METAR KMRB 260753Z AUTO 30015KT 10SM CLR 09/02 A2981 RMK AO2 SLP095 T00940022 =
2018-04-26 02:53 METAR KMRB 260653Z AUTO 29015G20KT 10SM CLR 10/02 A2979 RMK AO2 SLP088 T01000022
                 =
2018-04-26 01:53 METAR KMRB 260553Z AUTO 31010G16KT 10SM CLR 11/03 A2980 RMK AO2 SLP091 T01060033
                 10178 20100 53010 =
2018-04-26 00:53 METAR KMRB 260453Z AUTO 31010G19KT 10SM CLR 12/04 A2979 RMK AO2 PK WND
                 32026/0437 SLP087 T01220044 402060106 =
2018-04-25 23:53 METAR KMRB 260353Z AUTO 32011G18KT 10SM OVC036 14/08 A2978 RMK AO2 SLP083
                 T01440078 =
2018-04-25 22:53 METAR KMRB 260253Z AUTO 31012KT 10SM OVC049 16/09 A2977 RMK AO2 SLP081 T01560089
                 51017 =
2018-04-25 21:53 METAR KMRB 260153Z 32009KT 10SM BKN049 16/09 A2976 RMK AO2 SLP076 T01610094 =
2018-04-25 20:53 METAR KMRB 260053Z 31010G18KT 10SM BKN043 OVC055 17/10 A2975 RMK AO2 SLP073
                 T01670100 =
2018-04-25 19:53 METAR KMRB 252353Z 31012KT 10SM SCT042 OVC049 18/10 A2972 RMK AO2 SLP063
                 T01780100 10206 20172 53011 =
2018-04-25 18:53 METAR KMRB 252253Z 33007KT 10SM FEW042 SCT055 BKN080 19/11 A2971 RMK AO2 SLP057
                 T01890111 =
2018-04-25 17:53 METAR KMRB 252153Z 31009G20KT 10SM OVC038 18/11 A2970 RMK AO2 SLP056 T01830111 =
2018-04-25 16:53 METAR KMRB 252053Z 31008KT 10SM OVC036 21/12 A2969 RMK AO2 SLP051 T02060122
                 56015 =

Support USWX by starting your Amazon purchase here.